Latest Weather Observations for Cabramurra

IDN60901

Issued at 6:52 pm EDT Sunday 28 February 2021 (issued every 10 minutes, with the page automatically refreshed every 10 minutes)

About weather observations | Map of Canberra area stations | Latest observations for Canberra area | Other Formats
Station Details ID: 072161 Name: CABRAMURRA SMHEA AWS Lat: -35.94 Lon: 148.38 Height: 1482.4 m
Data from the previous 72 hours. | See also: Recent months at Cabramurra
Date/Time
EDT
Temp
°C
App
Temp
°C
Dew
Point
°C
Rel
Hum
%
Delta-T
°C
Wind Press
QNH
hPa
Press
MSL
hPa
Rain since
9am
mm
Dir  Spd
km/h
Gust
km/h
Spd
kts
Gust
kts
28/06:30pm 17.2 12.8 4.9 44 6.4 W 17 28 9 15 - - 0.0
28/06:00pm 18.1 13.5 5.7 44 6.5 WSW 19 28 10 15 - - 0.0
28/05:30pm 18.7 14.6 6.2 44 6.7 W 17 28 9 15 - - 0.0
28/05:00pm 18.8 14.3 6.0 43 6.8 W 19 28 10 15 - - 0.0
28/04:30pm 18.2 13.2 4.7 41 7.0 W 20 30 11 16 - - 0.0
28/04:00pm 18.6 14.9 6.1 44 6.7 WSW 15 22 8 12 - - 0.0
28/03:30pm 18.2 13.6 5.4 43 6.7 W 19 28 10 15 - - 0.0
28/03:00pm 18.2 13.6 5.4 43 6.7 W 19 30 10 16 - - 0.0
28/02:30pm 17.7 12.8 3.9 40 7.0 W 19 30 10 16 - - 0.0
28/02:00pm 17.6 13.4 5.9 46 6.2 WSW 17 28 9 15 - - 0.0
28/01:30pm 16.8 12.5 5.4 47 5.9 W 17 26 9 14 - - 0.0
28/01:00pm 16.6 11.9 5.9 49 5.6 W 20 33 11 18 - - 0.0
28/12:30pm 15.4 9.2 4.2 47 5.6 WSW 26 39 14 21 - - 0.0
28/12:00pm 15.5 9.9 5.4 51 5.2 WSW 24 39 13 21 - - 0.0
28/11:30am 15.2 11.3 5.4 52 5.0 WSW 15 30 8 16 - - 0.0
28/11:00am 14.9 11.3 4.9 51 5.1 W 13 24 7 13 - - 0.0
28/10:30am 14.4 8.9 4.1 50 5.1 WSW 22 35 12 19 - - 0.0
28/10:00am 13.5 6.5 4.1 53 4.7 WSW 30 46 16 25 - - 0.0
28/09:30am 13.1 6.5 4.3 55 4.4 WSW 28 44 15 24 - - 0.0
28/09:14am 12.7 6.0 3.6 54 4.4 WSW 28 46 15 25 - - 0.0
28/09:00am 12.3 6.0 3.5 55 4.3 WSW 26 41 14 22 - - 0.0
28/08:30am 12.0 5.6 3.3 55 4.2 W 26 41 14 22 - - 0.0
28/08:00am 11.6 4.8 2.9 55 4.1 WSW 28 41 15 22 - - 0.0
28/07:30am 10.7 5.6 3.0 59 3.7 W 19 32 10 17 - - 0.0
28/07:00am 10.4 5.7 3.0 60 3.5 W 17 24 9 13 - - 0.0
28/06:30am 10.6 5.3 3.2 60 3.5 WSW 20 33 11 18 - - 0.0
28/06:00am 10.4 5.7 3.2 61 3.4 W 17 24 9 13 - - 0.0
28/05:30am 10.4 5.7 3.2 61 3.4 W 17 24 9 13 - - 0.0
28/05:00am 10.3 5.6 2.9 60 3.5 W 17 24 9 13 - - 0.0
28/04:30am 10.0 5.2 2.6 60 3.5 W 17 22 9 12 - - 0.0
28/04:00am 10.0 5.9 2.1 58 3.7 W 13 20 7 11 - - 0.0
28/03:30am 10.4 5.1 2.0 56 3.9 W 19 28 10 15 - - 0.0
28/03:00am 10.3 5.1 2.2 57 3.8 W 19 24 10 13 - - 0.0
28/02:30am 9.9 5.4 2.3 59 3.5 W 15 24 8 13 - - 0.0
28/02:00am 9.8 6.4 3.8 66 2.9 WNW 11 17 6 9 - - 0.0
28/01:30am 10.2 8.0 3.5 63 3.2 W 4 9 2 5 - - 0.0
28/01:00am 10.5 7.1 3.8 63 3.2 WSW 11 15 6 8 - - 0.0
28/12:30am 10.5 7.7 3.3 61 3.4 WSW 7 9 4 5 - - 0.0
28/12:00am 11.0 7.6 3.8 61 3.5 SW 11 15 6 8 - - 0.0
 
Date/Time
EDT
Temp
°C
App
Temp
°C
Dew
Point
°C
Rel
Hum
%
Delta-T
°C
Wind Press
QNH
hPa
Press
MSL
hPa
Rain since
9am
mm
Dir  Spd
km/h
Gust
km/h
Spd
kts
Gust
kts
27/11:30pm 11.0 7.6 4.0 62 3.4 SW 11 17 6 9 - - 0.0
27/11:00pm 11.3 8.2 3.8 60 3.6 WSW 9 15 5 8 - - 0.0
27/10:30pm 11.5 7.7 4.0 60 3.7 WSW 13 20 7 11 - - 0.0
27/10:00pm 12.0 7.9 4.5 60 3.7 W 15 24 8 13 - - 0.0
27/09:30pm 12.0 8.4 5.2 63 3.4 WNW 13 19 7 10 - - 0.0
27/09:00pm 12.3 9.3 5.9 65 3.3 WNW 11 20 6 11 - - 0.0
27/08:30pm 12.5 9.6 6.3 66 3.2 WNW 11 17 6 9 - - 0.0
27/08:00pm 13.1 10.1 6.2 63 3.6 WNW 11 17 6 9 - - 0.0
27/07:30pm 14.5 10.5 6.6 59 4.2 WNW 17 20 9 11 - - 0.0
27/07:00pm 15.7 11.8 7.0 56 4.6 WNW 17 24 9 13 - - 0.0
27/06:30pm 16.3 12.2 6.2 51 5.3 WNW 17 28 9 15 - - 0.0
27/06:00pm 16.6 12.6 6.7 52 5.3 W 17 26 9 14 - - 0.0
27/05:30pm 16.5 11.8 6.1 50 5.5 W 20 28 11 15 - - 0.0
27/05:00pm 17.3 13.1 8.2 55 5.0 WNW 20 30 11 16 - - 0.0
27/04:30pm 16.7 12.2 7.1 53 5.2 WNW 20 28 11 15 - - 0.0
27/04:00pm 16.9 12.0 7.0 52 5.3 W 22 32 12 17 - - 0.0
27/03:30pm 16.8 12.7 7.7 55 5.0 W 19 28 10 15 - - 0.0
27/03:00pm 16.7 12.7 8.4 58 4.6 WNW 19 32 10 17 - - 0.0
27/02:30pm 16.4 11.6 8.9 61 4.2 WNW 24 35 13 19 - - 0.0
27/02:00pm 15.8 11.7 8.8 63 3.9 W 20 32 11 17 - - 0.0
27/01:30pm 14.9 11.4 8.8 67 3.4 W 17 24 9 13 - - 0.0
27/01:00pm 13.3 9.4 7.3 67 3.2 WNW 17 22 9 12 - - 0.0
27/12:30pm 12.5 9.6 6.5 67 3.1 NW 11 15 6 8 - - 0.0
27/12:00pm 12.5 9.8 7.2 70 2.8 NW 11 17 6 9 - - 0.0
27/11:30am 12.8 9.1 6.4 65 3.3 WNW 15 20 8 11 - - 0.0
27/11:00am 13.1 9.0 6.2 63 3.6 WNW 17 20 9 11 - - 0.0
27/10:30am 12.5 8.6 5.2 61 3.7 WNW 15 17 8 9 - - 0.0
27/10:00am 12.3 7.9 5.0 61 3.7 WNW 17 20 9 11 - - 0.0
27/09:30am 12.6 8.5 4.6 58 4.0 WNW 15 20 8 11 - - 0.0
27/09:00am 12.1 7.7 4.8 61 3.6 W 17 22 9 12 - - 0.0
27/08:30am 11.7 7.9 5.8 67 3.0 W 15 20 8 11 - - 0.0
27/08:00am 11.3 7.0 5.2 66 3.0 WNW 17 26 9 14 - - 0.0
27/07:30am 10.9 6.5 5.0 67 2.9 WNW 17 20 9 11 - - 0.0
27/07:00am 10.8 6.4 4.9 67 2.9 NW 17 24 9 13 - - 0.0
27/06:30am 11.0 6.6 4.9 66 3.0 NW 17 22 9 12 - - 0.0
27/06:00am 11.3 5.9 4.7 64 3.3 NW 22 28 12 15 - - 0.0
27/05:30am 11.4 6.4 4.8 64 3.3 NW 20 26 11 14 - - 0.0
27/05:00am 11.4 6.1 4.8 64 3.3 NW 22 26 12 14 - - 0.0
27/04:30am 11.0 6.6 4.9 66 3.0 NNW 17 28 9 15 - - 0.0
27/04:00am 10.7 7.2 5.3 69 2.7 N 13 17 7 9 - - 0.0
27/03:30am 11.0 7.0 4.9 66 3.0 N 15 17 8 9 - - 0.0
27/03:00am 11.4 7.8 4.8 64 3.3 N 13 17 7 9 - - 0.0
27/02:30am 11.4 7.8 4.8 64 3.3 N 13 15 7 8 - - 0.0
27/02:00am 11.1 7.9 5.0 66 3.0 N 11 17 6 9 - - 0.0
27/01:30am 10.9 6.8 6.1 72 2.4 NE 17 22 9 12 - - 0.0
27/01:00am 10.4 6.3 6.2 75 2.1 ENE 17 20 9 11 - - 0.0
27/12:30am 10.3 6.2 6.1 75 2.1 E 17 20 9 11 - - 0.0
27/12:00am 10.2 5.8 6.4 77 1.9 E 19 22 10 12 - - 0.0
 
Date/Time
EDT
Temp
°C
App
Temp
°C
Dew
Point
°C
Rel
Hum
%
Delta-T
°C
Wind Press
QNH
hPa
Press
MSL
hPa
Rain since
9am
mm
Dir  Spd
km/h
Gust
km/h
Spd
kts
Gust
kts
26/11:30pm 10.4 5.7 6.2 75 2.1 E 20 28 11 15 - - 0.0
26/11:00pm 10.9 7.2 6.3 73 2.3 E 15 19 8 10 - - 0.0
26/10:30pm 12.0 8.9 5.6 65 3.2 NNE 11 15 6 8 - - 0.0
26/10:00pm 12.2 8.7 5.4 63 3.4 NE 13 19 7 10 - - 0.0
26/09:30pm 12.3 10.9 5.5 63 3.4 NNE 2 9 1 5 - - 0.0
26/09:00pm 12.5 11.4 5.2 61 3.7 CALM 0 0 0 0 - - 0.0
26/08:30pm 12.8 10.4 5.2 60 3.8 NW 7 13 4 7 - - 0.0
26/08:00pm 12.8 10.7 5.7 62 3.6 WNW 6 9 3 5 - - 0.0
26/07:30pm 13.8 11.3 6.4 61 3.9 WNW 9 13 5 7 - - 0.0
26/07:00pm 14.9 11.6 6.2 56 4.5 W 13 17 7 9 - - 0.0
26/06:30pm 15.9 13.0 6.6 54 4.9 WNW 11 17 6 9 - - 0.0
26/06:00pm 16.2 13.0 6.9 54 5.0 W 13 19 7 10 - - 0.0
26/05:30pm 16.2 12.5 6.3 52 5.2 W 15 24 8 13 - - 0.0
26/05:00pm 16.5 13.1 7.7 56 4.8 W 15 22 8 12 - - 0.0
26/04:30pm 16.9 13.8 8.8 59 4.5 WNW 15 26 8 14 - - 0.0
26/04:00pm 15.7 11.1 6.4 54 4.9 WSW 20 28 11 15 - - 0.0
26/03:30pm 16.2 13.3 8.2 59 4.4 WNW 13 20 7 11 - - 0.0
26/03:00pm 15.2 11.1 6.0 54 4.8 WSW 17 28 9 15 - - 0.0
26/02:30pm 14.3 9.4 6.9 61 3.9 W 22 32 12 17 - - 0.0
26/02:00pm 14.8 11.3 8.7 67 3.3 W 17 30 9 16 - - 0.0
26/01:30pm 13.5 9.3 7.3 66 3.3 W 19 30 10 16 - - 0.0
26/01:00pm 13.6 8.8 7.2 65 3.4 W 22 33 12 18 - - 0.0
26/12:30pm 12.8 8.3 6.8 67 3.1 W 20 30 11 16 - - 0.0
26/12:00pm 12.7 8.2 7.0 68 3.0 W 20 33 11 18 - - 0.0
26/11:30am 12.0 6.5 6.1 67 3.0 W 24 37 13 20 - - 0.0
26/11:00am 11.2 5.2 5.5 68 2.9 W 26 39 14 21 - - 0.0
26/10:30am 10.8 4.8 5.1 68 2.8 W 26 39 14 21 - - 0.0
26/10:00am 10.2 4.0 4.4 67 2.8 W 26 39 14 21 - - 0.0
26/09:30am 9.9 4.0 3.9 66 2.9 W 24 33 13 18 - - 0.0
26/09:00am 9.4 4.0 2.7 63 3.1 W 20 33 11 18 - - 3.6
26/08:30am 8.9 4.0 2.0 62 3.2 W 17 24 9 13 - - 3.6
26/08:00am 8.5 3.3 2.3 65 2.8 W 19 28 10 15 - - 3.6
26/07:30am 8.0 2.3 0.5 59 3.3 W 20 26 11 14 - - 3.6
26/07:00am 7.7 2.1 0.2 59 3.3 WNW 19 26 10 14 - - 3.6
26/06:30am 8.0 2.8 0.3 58 3.4 WNW 17 28 9 15 - - 3.6
26/06:00am 7.9 2.7 0.2 58 3.3 W 17 20 9 11 - - 3.6
26/05:30am 8.2 2.4 0.2 57 3.5 W 20 26 11 14 - - 3.6
26/05:00am 8.4 2.6 0.1 56 3.6 W 20 32 11 17 - - 3.6
26/04:30am 8.4 2.6 -0.1 55 3.7 W 20 28 11 15 - - 3.6
26/04:00am 8.5 2.3 0.0 55 3.7 W 22 28 12 15 - - 3.6
26/03:30am 8.4 2.2 -0.1 55 3.7 W 22 32 12 17 - - 3.6
26/03:00am 8.7 3.1 -0.1 54 3.8 WNW 19 32 10 17 - - 3.6
26/02:30am 8.6 2.9 0.3 56 3.6 WNW 20 28 11 15 - - 3.6
26/02:00am 9.1 3.3 0.0 53 4.0 W 20 33 11 18 - - 3.6
26/01:30am 9.1 3.0 0.3 54 3.9 WNW 22 32 12 17 - - 3.6
26/01:00am 9.4 4.1 1.8 59 3.5 W 19 30 10 16 - - 3.6
26/12:30am 9.7 3.4 1.6 57 3.7 W 24 33 13 18 - - 3.6
26/12:00am 9.7 4.7 3.4 65 3.0 W 19 32 10 17 - - 3.6
 
Date/Time
EDT
Temp
°C
App
Temp
°C
Dew
Point
°C
Rel
Hum
%
Delta-T
°C
Wind Press
QNH
hPa
Press
MSL
hPa
Rain since
9am
mm
Dir  Spd
km/h
Gust
km/h
Spd
kts
Gust
kts
25/11:30pm 10.3 5.1 3.8 64 3.1 W 20 35 11 19 - - 3.6
25/11:00pm 10.4 5.1 4.8 68 2.8 W 22 32 12 17 - - 3.6
25/10:30pm 10.7 4.9 4.6 66 3.0 W 24 33 13 18 - - 3.6
25/10:00pm 10.9 4.9 5.2 68 2.8 W 26 32 14 17 - - 3.6
25/09:30pm 11.2 6.2 6.3 72 2.5 W 22 35 12 19 - - 3.6
25/09:00pm 11.8 6.5 8.5 80 1.8 W 26 37 14 20 - - 3.6
25/08:30pm 12.0 7.1 9.9 87 1.2 W 26 39 14 21 - - 3.6
25/08:00pm 12.6 8.9 10.1 85 1.4 WNW 20 30 11 16 - - 3.6
25/07:30pm 13.0 9.7 11.7 92 0.7 W 20 33 11 18 - - 3.6
25/07:00pm 13.1 10.3 12.6 97 0.3 WNW 19 32 10 17 - - 3.6

Latest Capital City Observations: Canberra | Sydney | Melbourne | Brisbane | Adelaide | Perth | Hobart | Darwin

Other formats

Comma delimited format used in spreadsheet applications
http://www.bom.gov.au/fwo/IDN60903/IDN60903.95916.axf

JavaScript Object Notation format (JSON) in row-major order
http://www.bom.gov.au/fwo/IDN60903/IDN60903.95916.json

Data quality

Most of these data are generated automatically and are frequently updated. Quality checks on data are not normally performed. It is possible for incorrect values to appear. Refer to information at About Latest Weather Observations and please check the disclaimer before using these data.